Time;durP1;ratioP1;P1;durP2;ratioP2;P2;SDS_P1;SDS_P2;PMS_P1;PMS_P2;Temp;Humidity;BMP_temperature;BMP_pressure;BME280_temperature;BME280_humidity;BME280_pressure;Samples;Min_cycle;Max_cycle;Signal;HPM_P1;HPM_P2
2022/04/01 00:00:01;;;;;;;6.53;2.20;;;1.40;99.90;;;;;;5015784;28;20042;-68
2022/04/01 00:02:27;;;;;;;4.30;2.40;;;1.40;99.90;;;;;;5015630;28;20056;-68
2022/04/01 00:04:53;;;;;;;6.70;2.70;;;1.30;99.90;;;;;;5015650;28;20060;-70
2022/04/01 00:07:19;;;;;;;4.88;2.22;;;1.30;99.90;;;;;;5015782;28;20050;-70
2022/04/01 00:09:44;;;;;;;4.85;2.42;;;1.40;99.90;;;;;;4997770;28;20038;-69
2022/04/01 00:12:10;;;;;;;3.92;2.53;;;1.30;99.90;;;;;;5015209;28;20046;-69
2022/04/01 00:14:36;;;;;;;5.53;3.40;;;1.30;99.90;;;;;;5015280;28;20042;-68
2022/04/01 00:17:02;;;;;;;3.38;2.25;;;1.30;99.90;;;;;;4997822;28;20099;-67
2022/04/01 00:19:28;;;;;;;3.67;2.28;;;1.30;99.90;;;;;;5015111;28;20420;-70
2022/04/01 00:21:55;;;;;;;6.00;2.78;;;1.30;99.90;;;;;;5015506;28;20069;-68
2022/04/01 00:24:21;;;;;;;4.45;2.30;;;1.30;99.90;;;;;;4998786;28;20038;-67
2022/04/01 00:26:47;;;;;;;4.13;1.90;;;1.30;99.90;;;;;;5005855;28;20089;-70
2022/04/01 00:29:16;;;;;;;3.97;2.42;;;1.30;99.90;;;;;;5017871;28;20081;-67
2022/04/01 00:31:48;;;;;;;5.20;3.25;;;1.30;99.90;;;;;;5034986;28;20052;-69
2022/04/01 00:34:17;;;;;;;3.10;2.38;;;1.30;99.90;;;;;;5018649;28;20470;-70
2022/04/01 00:36:49;;;;;;;5.13;2.55;;;1.30;99.90;;;;;;5034889;28;20033;-69
2022/04/01 00:39:16;;;;;;;5.13;2.42;;;1.40;99.90;;;;;;5035067;28;20042;-69
2022/04/01 00:41:47;;;;;;;5.60;2.63;;;1.30;99.90;;;;;;5035072;28;20091;-68
2022/04/01 00:44:17;;;;;;;6.82;2.38;;;1.30;99.90;;;;;;5033819;28;20053;-69
2022/04/01 00:46:47;;;;;;;5.55;3.17;;;1.30;99.90;;;;;;5035104;28;20071;-70
2022/04/01 00:49:13;;;;;;;4.47;2.50;;;1.30;99.90;;;;;;5034941;28;20041;-68
2022/04/01 00:51:42;;;;;;;5.50;2.40;;;1.30;99.90;;;;;;5001647;28;20067;-69
2022/04/01 00:54:08;;;;;;;6.22;2.72;;;1.30;99.90;;;;;;5034819;28;20103;-71
2022/04/01 00:56:35;;;;;;;5.88;2.80;;;1.40;99.90;;;;;;5017863;28;20136;-68
2022/04/01 00:59:02;;;;;;;4.50;3.10;;;1.40;99.90;;;;;;5017541;28;20054;-69
2022/04/01 01:01:30;;;;;;;4.15;2.20;;;1.30;99.90;;;;;;5034779;28;20359;-70
2022/04/01 01:04:00;;;;;;;6.45;2.22;;;1.40;99.90;;;;;;5034591;28;20038;-69
2022/04/01 01:06:26;;;;;;;4.55;2.47;;;1.40;99.90;;;;;;5034667;28;20052;-68
2022/04/01 01:08:52;;;;;;;7.32;2.75;;;1.30;99.90;;;;;;5034844;28;20048;-68
2022/04/01 01:11:17;;;;;;;6.50;2.60;;;1.40;99.90;;;;;;5034420;28;20046;-68
2022/04/01 01:13:43;;;;;;;6.07;2.03;;;1.30;99.90;;;;;;5034134;28;20054;-68
2022/04/01 01:16:09;;;;;;;5.78;2.65;;;1.40;99.90;;;;;;5018226;28;20136;-68
2022/04/01 01:18:35;;;;;;;5.03;2.97;;;1.30;99.90;;;;;;5034376;28;20033;-68
2022/04/01 01:21:01;;;;;;;5.68;2.80;;;1.40;99.90;;;;;;5017190;28;20038;-69
2022/04/01 01:23:29;;;;;;;4.38;2.80;;;1.40;99.90;;;;;;5017489;28;20459;-69
2022/04/01 01:25:55;;;;;;;7.78;2.92;;;1.40;99.90;;;;;;5034256;28;20037;-69
2022/04/01 01:28:22;;;;;;;8.18;2.72;;;1.40;99.90;;;;;;5034382;28;20056;-68
2022/04/01 01:30:48;;;;;;;9.07;2.92;;;1.40;99.90;;;;;;5034618;28;20049;-70
2022/04/01 01:33:14;;;;;;;5.68;2.65;;;1.40;99.90;;;;;;5034442;28;20049;-70
2022/04/01 01:35:40;;;;;;;8.32;2.83;;;1.40;99.90;;;;;;5017367;28;20041;-68
2022/04/01 01:38:08;;;;;;;6.00;2.60;;;1.40;99.90;;;;;;5016667;28;20048;-70
2022/04/01 01:40:34;;;;;;;5.43;2.63;;;1.50;99.90;;;;;;5018244;28;20046;-67
2022/04/01 01:42:59;;;;;;;9.93;4.03;;;1.50;99.90;;;;;;5018424;28;20452;-69
2022/04/01 01:45:29;;;;;;;11.70;2.92;;;1.50;99.90;;;;;;5018790;28;20042;-69
2022/04/01 01:47:54;;;;;;;6.63;2.88;;;1.40;99.90;;;;;;5001757;28;20046;-71
2022/04/01 01:55:49;;;;;;;5.43;2.53;;;1.50;99.90;;;;;;5018042;28;20057;-69
2022/04/01 01:58:15;;;;;;;7.97;3.22;;;1.50;99.90;;;;;;5018447;28;20356;-68
2022/04/01 02:00:42;;;;;;;9.70;2.90;;;1.40;99.90;;;;;;5018091;28;20041;-69
2022/04/01 02:03:10;;;;;;;5.68;3.33;;;1.50;99.90;;;;;;5011863;28;20157;-69
2022/04/01 02:05:35;;;;;;;7.05;2.80;;;1.50;99.90;;;;;;4998347;28;20054;-68
2022/04/01 02:08:02;;;;;;;6.28;3.13;;;1.50;99.90;;;;;;5000617;28;20037;-68
2022/04/01 02:10:28;;;;;;;9.63;3.28;;;1.50;99.90;;;;;;5001039;28;20073;-69
2022/04/01 02:12:54;;;;;;;9.85;3.10;;;1.60;99.90;;;;;;5018160;28;20092;-70
2022/04/01 02:15:20;;;;;;;9.93;3.10;;;1.50;99.90;;;;;;5017876;28;20447;-69
2022/04/01 02:17:46;;;;;;;7.53;3.63;;;1.60;99.90;;;;;;5017863;28;20038;-69
2022/04/01 02:20:13;;;;;;;8.88;3.42;;;1.60;99.90;;;;;;5000427;28;20057;-70
2022/04/01 02:22:40;;;;;;;7.75;3.08;;;1.60;99.90;;;;;;5017895;28;20452;-69
2022/04/01 02:25:11;;;;;;;7.63;3.55;;;1.60;99.90;;;;;;5021957;28;20049;-69
2022/04/01 02:27:37;;;;;;;8.50;3.10;;;1.60;99.90;;;;;;5015624;28;20064;-69
2022/04/01 02:30:10;;;;;;;5.45;2.72;;;1.60;99.90;;;;;;5037669;28;20064;-67
2022/04/01 02:32:41;;;;;;;9.85;3.22;;;1.60;99.90;;;;;;5037302;28;20045;-70
2022/04/01 02:35:08;;;;;;;8.85;2.95;;;1.60;99.90;;;;;;5024536;28;20041;-69
2022/04/01 02:37:34;;;;;;;6.70;2.78;;;1.60;99.90;;;;;;5017473;28;20049;-70
2022/04/01 02:40:00;;;;;;;10.13;3.65;;;1.60;99.90;;;;;;5000126;28;20056;-69
2022/04/01 02:42:25;;;;;;;6.65;3.47;;;1.60;99.90;;;;;;5000233;28;20042;-69
2022/04/01 02:44:52;;;;;;;14.20;3.08;;;1.60;99.90;;;;;;5017400;28;20046;-68
2022/04/01 02:47:18;;;;;;;10.35;3.22;;;1.60;99.90;;;;;;5017272;28;20046;-69
2022/04/01 02:49:43;;;;;;;10.35;2.90;;;1.50;99.90;;;;;;4999764;28;20071;-69
2022/04/01 02:52:09;;;;;;;7.32;3.30;;;1.50;99.90;;;;;;5017106;28;20045;-69
2022/04/01 02:54:35;;;;;;;6.70;3.47;;;1.60;99.90;;;;;;5017173;28;20038;-68
2022/04/01 02:57:02;;;;;;;9.48;3.40;;;1.60;99.90;;;;;;4999800;28;20128;-69
2022/04/01 02:59:28;;;;;;;8.80;2.75;;;1.60;99.90;;;;;;5016753;28;20042;-68
2022/04/01 03:01:54;;;;;;;5.20;2.85;;;1.60;99.90;;;;;;5016657;28;20050;-69
2022/04/01 03:04:19;;;;;;;9.60;2.80;;;1.60;99.90;;;;;;5016655;28;20095;-68
2022/04/01 03:06:45;;;;;;;8.65;3.55;;;1.60;99.90;;;;;;5016849;28;20045;-67
2022/04/01 03:09:11;;;;;;;7.18;2.75;;;1.60;99.90;;;;;;4999855;28;20045;-67
2022/04/01 03:11:37;;;;;;;7.50;3.47;;;1.70;99.90;;;;;;5016920;28;20057;-69
2022/04/01 03:14:03;;;;;;;6.85;2.63;;;1.60;99.90;;;;;;5016717;28;20038;-70
2022/04/01 03:16:29;;;;;;;4.60;2.63;;;1.60;99.90;;;;;;5016027;28;20128;-69
2022/04/01 03:18:57;;;;;;;8.77;2.70;;;1.60;99.90;;;;;;5016398;28;20461;-69
2022/04/01 03:21:24;;;;;;;7.85;3.83;;;1.60;99.90;;;;;;4999707;28;20061;-67
2022/04/01 03:23:50;;;;;;;9.60;3.03;;;1.70;99.90;;;;;;5016466;28;20053;-68
2022/04/01 03:26:15;;;;;;;4.65;2.30;;;1.70;99.90;;;;;;5003730;28;20057;-68
2022/04/01 03:28:41;;;;;;;8.80;2.90;;;1.60;99.90;;;;;;5018785;28;20124;-68
2022/04/01 03:31:09;;;;;;;8.30;3.58;;;1.60;99.90;;;;;;5018633;28;20037;-68
2022/04/01 03:33:36;;;;;;;5.43;2.38;;;1.60;99.90;;;;;;5035767;28;20037;-67
2022/04/01 03:36:03;;;;;;;8.60;2.97;;;1.60;99.90;;;;;;5016274;28;20416;-71
2022/04/01 03:38:29;;;;;;;4.20;2.35;;;1.60;99.90;;;;;;5016246;28;20050;-68
2022/04/01 03:40:55;;;;;;;9.32;3.22;;;1.70;99.90;;;;;;5016242;28;20041;-68
2022/04/01 03:43:23;;;;;;;13.02;3.10;;;1.70;99.90;;;;;;5016673;28;20352;-70
2022/04/01 03:45:52;;;;;;;5.68;2.97;;;1.70;99.90;;;;;;5015953;28;20033;-70
2022/04/01 03:48:33;;;;;;;10.32;2.72;;;1.70;99.90;;;;;;5015103;28;20042;-70
2022/04/01 03:51:01;;;;;;;4.85;2.30;;;1.60;99.90;;;;;;5026748;28;20099;-69
2022/04/01 03:53:30;;;;;;;3.97;2.45;;;1.70;99.90;;;;;;5018922;28;20037;-69
2022/04/01 03:55:57;;;;;;;5.93;3.00;;;1.70;99.90;;;;;;5018724;28;20041;-68
2022/04/01 03:58:28;;;;;;;7.53;2.92;;;1.70;99.90;;;;;;5036045;28;20053;-69
2022/04/01 04:00:57;;;;;;;6.97;2.72;;;1.70;99.90;;;;;;5034863;28;20440;-69
2022/04/01 04:03:23;;;;;;;11.65;3.15;;;1.70;99.90;;;;;;5036031;28;20079;-68
2022/04/01 04:05:50;;;;;;;10.27;2.83;;;1.70;99.90;;;;;;5035648;28;20052;-69
2022/04/01 04:08:18;;;;;;;13.65;3.70;;;1.70;99.90;;;;;;5035481;28;20042;-68
2022/04/01 04:10:46;;;;;;;14.48;3.85;;;1.80;99.90;;;;;;5035657;28;20455;-70
2022/04/01 04:13:12;;;;;;;6.50;2.80;;;1.70;99.90;;;;;;5035360;28;20041;-70
2022/04/01 04:15:47;;;;;;;9.38;3.13;;;1.70;99.90;;;;;;5035315;28;20064;-68
2022/04/01 04:18:15;;;;;;;;;;;1.70;99.90;;;;;;5036034;28;20053;-69
2022/04/01 04:21:06;;;;;;;6.45;2.55;;;1.70;99.90;;;;;;5035463;28;19917;-68
2022/04/01 04:23:37;;;;;;;8.32;2.63;;;1.80;99.90;;;;;;5017387;28;20041;-70
2022/04/01 04:26:11;;;;;;;9.27;2.85;;;1.80;99.90;;;;;;5034799;28;20049;-69
2022/04/01 04:28:40;;;;;;;12.52;3.58;;;1.80;99.90;;;;;;5034412;28;20053;-70
2022/04/01 04:31:08;;;;;;;12.60;3.38;;;1.80;99.90;;;;;;5034212;28;20041;-68
2022/04/01 04:33:42;;;;;;;11.55;3.70;;;1.80;99.90;;;;;;5033721;28;20083;-70
2022/04/01 04:36:10;;;;;;;8.10;3.60;;;1.90;99.90;;;;;;5033740;28;20041;-68
2022/04/01 04:38:39;;;;;;;9.10;3.35;;;1.90;99.90;;;;;;5034069;28;20033;-67
2022/04/01 04:41:08;;;;;;;7.53;2.80;;;1.80;99.90;;;;;;5016294;28;20132;-68
2022/04/01 04:43:38;;;;;;;9.18;3.45;;;1.90;99.90;;;;;;5034143;28;20048;-69
2022/04/01 04:46:05;;;;;;;14.40;4.65;;;1.80;99.90;;;;;;5034216;28;20041;-69
2022/04/01 04:48:34;;;;;;;8.48;3.30;;;1.90;99.90;;;;;;5033860;28;20045;-68
2022/04/01 04:51:03;;;;;;;9.85;3.40;;;1.90;99.90;;;;;;5034126;28;20088;-68
2022/04/01 04:53:31;;;;;;;9.40;3.60;;;1.80;99.90;;;;;;5034072;28;20103;-69
2022/04/01 04:55:59;;;;;;;9.90;3.65;;;1.90;99.90;;;;;;5033880;28;20045;-70
2022/04/01 04:58:39;;;;;;;13.00;5.40;;;1.90;99.90;;;;;;5033911;28;20041;-69
2022/04/01 05:01:38;;;;;;;13.10;3.25;;;1.90;99.90;;;;;;5016124;28;20052;-70
2022/04/01 05:04:15;;;;;;;7.35;3.30;;;1.90;99.90;;;;;;5034057;28;20053;-69
2022/04/01 05:06:53;;;;;;;11.82;3.65;;;1.90;99.90;;;;;;5016602;28;20408;-69
2022/04/01 05:09:59;;;;;;;12.40;3.50;;;1.90;99.90;;;;;;5016470;28;20076;-68
2022/04/01 05:12:32;;;;;;;12.80;3.55;;;2.00;99.90;;;;;;4995117;28;20141;-69
2022/04/01 05:15:11;;;;;;;9.07;3.72;;;1.90;99.90;;;;;;5036894;28;20048;-69
2022/04/01 05:17:47;;;;;;;10.05;4.05;;;2.00;99.90;;;;;;5036477;28;20308;-70
2022/04/01 05:20:16;;;;;;;7.45;3.10;;;2.00;99.90;;;;;;5036918;28;20041;-68
2022/04/01 05:22:48;;;;;;;6.65;2.97;;;1.90;99.90;;;;;;5037111;28;20045;-68
2022/04/01 05:25:20;;;;;;;6.45;3.30;;;2.00;99.90;;;;;;5036974;28;20037;-70
2022/04/01 05:27:58;;;;;;;10.32;4.05;;;2.00;99.90;;;;;;5002645;28;1023015;-68
2022/04/01 05:30:29;;;;;;;7.15;3.40;;;2.00;99.90;;;;;;5038276;28;20041;-69
2022/04/01 05:33:09;;;;;;;9.93;3.17;;;2.00;99.90;;;;;;5023044;28;20037;-67
2022/04/01 05:35:40;;;;;;;7.20;3.70;;;2.00;99.90;;;;;;5042330;28;20120;-68
2022/04/01 05:38:09;;;;;;;8.80;3.22;;;2.00;99.90;;;;;;5057934;28;20044;-68
2022/04/01 05:40:38;;;;;;;7.82;3.00;;;2.00;99.90;;;;;;5040259;28;20055;-70
2022/04/01 05:43:04;;;;;;;7.15;3.13;;;2.00;99.90;;;;;;5058533;28;20398;-69
2022/04/01 05:45:31;;;;;;;10.73;3.80;;;2.00;99.90;;;;;;5057375;28;20044;-69
2022/04/01 05:47:57;;;;;;;11.00;2.92;;;2.10;99.90;;;;;;5056284;28;20033;-68
2022/04/01 05:50:24;;;;;;;6.13;2.97;;;2.00;99.90;;;;;;5057890;28;20049;-66
2022/04/01 05:52:52;;;;;;;15.27;3.58;;;2.00;99.90;;;;;;5057924;28;20033;-67
2022/04/01 05:55:23;;;;;;;8.57;3.65;;;2.00;99.90;;;;;;5019977;28;20046;-68
2022/04/01 05:57:49;;;;;;;8.50;3.00;;;2.00;99.90;;;;;;5018519;28;20100;-67
2022/04/01 06:00:15;;;;;;;12.05;3.47;;;2.00;99.90;;;;;;5018270;28;20041;-71
2022/04/01 06:02:56;;;;;;;5.00;2.72;;;2.00;99.90;;;;;;5001178;28;20159;-70
2022/04/01 06:05:49;;;;;;;8.77;3.20;;;2.10;99.90;;;;;;5018046;28;20045;-69
2022/04/01 06:08:33;;;;;;;9.88;2.90;;;2.00;99.90;;;;;;5021607;28;20060;-69
2022/04/01 06:11:12;;;;;;;5.50;3.00;;;2.00;99.90;;;;;;5057466;28;20040;-67
2022/04/01 06:14:07;;;;;;;8.90;3.20;;;2.10;99.90;;;;;;5057926;28;20048;-67
2022/04/01 06:16:47;;;;;;;12.95;4.78;;;2.10;99.90;;;;;;5038621;28;20048;-71
2022/04/01 06:19:34;;;;;;;9.15;3.10;;;2.10;99.90;;;;;;5037545;28;20037;-70
2022/04/01 06:22:14;;;;;;;7.95;3.20;;;2.10;99.90;;;;;;5020429;28;20052;-70
2022/04/01 06:24:58;;;;;;;6.47;2.75;;;2.10;99.90;;;;;;5036859;28;20060;-70
2022/04/01 06:27:42;;;;;;;10.60;3.75;;;2.20;99.90;;;;;;5037337;28;20132;-68
2022/04/01 06:30:10;;;;;;;12.18;3.50;;;2.10;99.90;;;;;;5037183;28;20060;-68
2022/04/01 06:33:03;;;;;;;7.38;2.90;;;2.20;99.90;;;;;;5020036;28;20347;-69
2022/04/01 06:35:55;;;;;;;7.38;2.83;;;2.20;99.90;;;;;;5020531;28;20448;-70
2022/04/01 06:38:35;;;;;;;7.10;2.92;;;2.30;99.90;;;;;;5019950;28;20045;-70
2022/04/01 06:41:05;;;;;;;9.05;3.53;;;2.30;99.90;;;;;;5036982;28;20033;-70
2022/04/01 06:43:31;;;;;;;10.23;3.22;;;2.30;99.90;;;;;;5019794;28;20099;-71
2022/04/01 06:45:56;;;;;;;11.50;3.15;;;2.30;99.90;;;;;;5036741;28;20045;-70
2022/04/01 06:48:23;;;;;;;6.07;2.90;;;2.30;99.90;;;;;;5037074;28;20117;-69
2022/04/01 06:50:51;;;;;;;11.80;3.20;;;2.30;99.90;;;;;;5019579;28;20498;-69
2022/04/01 06:53:17;;;;;;;8.27;3.00;;;2.40;99.90;;;;;;5019982;28;20037;-68
2022/04/01 06:55:47;;;;;;;8.27;3.20;;;2.40;99.90;;;;;;5019046;28;20388;-71
2022/04/01 06:58:13;;;;;;;9.88;2.90;;;2.50;99.90;;;;;;5019656;28;20045;-70
2022/04/01 07:00:40;;;;;;;8.95;2.97;;;2.50;99.90;;;;;;5033649;28;20056;-70
2022/04/01 07:03:10;;;;;;;8.75;3.15;;;2.50;99.90;;;;;;5036708;28;20052;-69
2022/04/01 07:05:36;;;;;;;10.05;3.38;;;2.50;99.90;;;;;;5036742;28;20064;-69
2022/04/01 07:08:06;;;;;;;7.93;3.97;;;2.60;99.90;;;;;;5036480;28;20052;-69
2022/04/01 07:10:32;;;;;;;8.10;2.53;;;2.60;99.90;;;;;;5036812;28;20045;-69
2022/04/01 07:12:58;;;;;;;6.97;2.58;;;2.70;99.90;;;;;;5036982;28;20436;-70
2022/04/01 07:15:24;;;;;;;7.50;2.53;;;2.70;99.90;;;;;;5036504;28;20124;-70
2022/04/01 07:17:50;;;;;;;8.95;3.78;;;2.70;99.90;;;;;;5036709;28;20069;-69
2022/04/01 07:20:16;;;;;;;6.25;2.67;;;2.80;99.90;;;;;;5036417;28;20045;-70
2022/04/01 07:22:42;;;;;;;15.05;3.28;;;2.80;99.90;;;;;;5036433;28;20340;-69
2022/04/01 07:25:12;;;;;;;8.43;3.00;;;2.80;99.90;;;;;;5036392;28;20076;-68
2022/04/01 07:27:38;;;;;;;6.38;2.30;;;2.90;99.90;;;;;;5034269;28;20467;-70
2022/04/01 07:30:08;;;;;;;4.72;2.63;;;2.90;99.90;;;;;;5035550;28;20414;-69
2022/04/01 07:32:35;;;;;;;8.05;2.53;;;3.00;99.90;;;;;;5019214;28;20049;-70
2022/04/01 07:35:02;;;;;;;11.85;3.00;;;3.00;99.90;;;;;;5035332;28;20048;-71
2022/04/01 07:37:29;;;;;;;5.82;2.90;;;3.10;99.90;;;;;;5036272;28;20059;-70
2022/04/01 07:39:57;;;;;;;6.95;2.58;;;3.10;99.90;;;;;;5035936;28;20041;-70
2022/04/01 07:42:24;;;;;;;7.10;2.75;;;3.10;99.90;;;;;;5035803;28;20077;-69
2022/04/01 07:44:50;;;;;;;5.90;2.17;;;3.20;99.90;;;;;;5035699;28;20037;-69
2022/04/01 07:47:18;;;;;;;8.23;3.42;;;3.30;99.90;;;;;;5035537;28;20440;-68
2022/04/01 07:49:44;;;;;;;7.45;2.88;;;3.30;99.90;;;;;;5036244;28;20038;-70
2022/04/01 07:52:12;;;;;;;10.73;3.22;;;3.30;99.90;;;;;;5034605;28;20474;-70
2022/04/01 07:54:40;;;;;;;7.60;2.50;;;3.40;99.90;;;;;;5036151;28;20049;-70
2022/04/01 07:57:07;;;;;;;7.57;2.60;;;3.40;99.90;;;;;;5035662;28;20329;-69
2022/04/01 07:59:33;;;;;;;11.07;3.10;;;3.50;99.90;;;;;;5035563;28;20128;-68
2022/04/01 08:01:59;;;;;;;8.18;2.75;;;3.60;99.90;;;;;;5035378;28;20127;-68
2022/04/01 08:04:25;;;;;;;5.93;3.08;;;3.60;99.90;;;;;;5035234;28;20103;-72
2022/04/01 08:06:52;;;;;;;8.05;3.00;;;3.60;99.90;;;;;;5036215;28;20444;-69
2022/04/01 08:09:17;;;;;;;7.40;2.45;;;3.70;99.90;;;;;;5019040;28;20037;-69
2022/04/01 08:11:43;;;;;;;9.52;2.83;;;3.70;99.90;;;;;;5035900;28;20131;-70
2022/04/01 08:14:09;;;;;;;7.50;2.63;;;3.80;99.90;;;;;;5018073;28;20041;-68
2022/04/01 08:16:34;;;;;;;5.63;2.35;;;3.90;99.90;;;;;;5018287;28;20042;-69
2022/04/01 08:19:00;;;;;;;5.82;2.70;;;3.90;99.90;;;;;;5017829;28;20045;-68
2022/04/01 08:21:26;;;;;;;5.13;2.35;;;3.90;99.90;;;;;;5017475;28;20466;-69
2022/04/01 08:23:51;;;;;;;5.22;2.42;;;4.00;99.90;;;;;;5032136;28;20052;-70
2022/04/01 08:26:17;;;;;;;8.60;2.92;;;4.00;99.90;;;;;;5035631;28;20400;-70
2022/04/01 08:28:43;;;;;;;7.45;2.65;;;4.10;99.90;;;;;;5035033;28;20053;-70
2022/04/01 08:31:09;;;;;;;7.15;2.25;;;4.20;99.90;;;;;;5034913;28;20045;-70
2022/04/01 08:33:35;;;;;;;11.20;3.53;;;4.30;99.90;;;;;;5035279;28;20045;-69
2022/04/01 08:36:01;;;;;;;7.85;2.70;;;4.30;99.90;;;;;;5034876;28;20471;-71
2022/04/01 08:38:26;;;;;;;6.95;2.72;;;4.40;99.90;;;;;;5035662;28;20076;-70
2022/04/01 08:40:52;;;;;;;6.68;2.10;;;4.50;99.90;;;;;;5034535;28;20041;-69
2022/04/01 08:43:31;;;;;;;9.80;2.72;;;4.50;99.90;;;;;;5034945;28;20037;-72
2022/04/01 08:45:59;;;;;;;7.25;2.88;;;4.60;99.90;;;;;;5034883;28;20052;-70
2022/04/01 08:48:27;;;;;;;8.13;3.03;;;4.50;99.90;;;;;;5034851;28;20124;-70
2022/04/01 08:50:53;;;;;;;7.28;2.75;;;4.60;99.90;;;;;;5034988;28;20444;-72
2022/04/01 08:53:19;;;;;;;6.22;2.40;;;4.60;99.90;;;;;;5034814;28;20044;-71
2022/04/01 08:55:47;;;;;;;7.70;2.63;;;4.70;99.90;;;;;;5034945;28;20037;-69
2022/04/01 08:58:13;;;;;;;7.03;3.03;;;4.70;99.90;;;;;;5035007;28;20049;-69
2022/04/01 09:00:39;;;;;;;7.47;2.83;;;4.70;99.90;;;;;;5034713;28;20033;-71
2022/04/01 09:03:07;;;;;;;5.88;2.30;;;4.80;99.90;;;;;;5031295;28;20351;-70
2022/04/01 09:05:34;;;;;;;8.55;2.97;;;4.80;99.90;;;;;;5034459;28;20459;-70
2022/04/01 09:08:04;;;;;;;6.47;2.63;;;4.80;99.90;;;;;;5034548;28;20124;-71
2022/04/01 09:10:48;;;;;;;4.05;2.13;;;4.80;99.90;;;;;;5034697;28;20509;-70
2022/04/01 09:13:13;;;;;;;5.53;2.40;;;4.80;99.90;;;;;;5034934;28;20034;-70
2022/04/01 09:15:42;;;;;;;6.60;2.28;;;4.90;99.90;;;;;;5034720;28;20033;-69
2022/04/01 09:18:09;;;;;;;5.93;2.53;;;4.90;99.90;;;;;;5034462;28;20096;-71
2022/04/01 09:20:48;;;;;;;6.78;2.40;;;5.00;99.90;;;;;;5034500;28;20034;-69
2022/04/01 09:23:24;;;;;;;4.18;2.97;;;5.10;99.90;;;;;;5033967;28;20068;-70
2022/04/01 09:25:53;;;;;;;4.97;2.20;;;5.10;99.90;;;;;;5033799;28;20072;-70
2022/04/01 09:28:31;;;;;;;4.05;2.30;;;5.20;99.90;;;;;;5014806;28;20377;-71
2022/04/01 09:31:11;;;;;;;3.85;1.83;;;5.20;99.90;;;;;;5014995;28;20072;-70
2022/04/01 09:33:42;;;;;;;8.10;2.63;;;5.20;99.90;;;;;;5014648;28;20116;-68
2022/04/01 09:36:14;;;;;;;5.07;2.40;;;5.30;99.90;;;;;;4997820;28;20053;-71
2022/04/01 09:38:51;;;;;;;6.30;2.53;;;5.20;99.90;;;;;;5014382;28;20088;-71
2022/04/01 09:41:19;;;;;;;6.57;2.67;;;5.40;99.90;;;;;;5015012;28;20050;-70
2022/04/01 09:43:45;;;;;;;6.57;2.50;;;5.50;99.90;;;;;;5014596;28;20053;-70
2022/04/01 09:46:25;;;;;;;4.68;3.17;;;5.50;99.90;;;;;;4997364;28;20060;-69
2022/04/01 09:48:56;;;;;;;8.10;3.65;;;5.60;99.90;;;;;;5014539;28;20045;-70
2022/04/01 09:51:22;;;;;;;4.85;2.65;;;5.70;99.90;;;;;;5011145;28;20472;-70
2022/04/01 09:53:54;;;;;;;5.78;3.00;;;5.70;99.90;;;;;;5014523;28;20117;-70
2022/04/01 09:56:42;;;;;;;6.82;2.88;;;5.70;99.90;;;;;;5014421;28;20052;-69
2022/04/01 09:59:08;;;;;;;6.00;2.83;;;5.80;99.90;;;;;;5016737;28;20038;-70
2022/04/01 10:01:36;;;;;;;7.13;2.75;;;5.80;99.90;;;;;;5017894;28;20088;-70
2022/04/01 10:04:02;;;;;;;5.47;3.00;;;5.80;99.90;;;;;;5018250;28;20137;-69
2022/04/01 10:06:30;;;;;;;5.78;2.40;;;5.80;99.90;;;;;;5018375;28;20052;-68
2022/04/01 10:08:59;;;;;;;4.10;2.22;;;5.90;99.90;;;;;;5018310;28;20045;-70
2022/04/01 10:11:26;;;;;;;5.90;2.80;;;5.90;99.90;;;;;;5018186;28;20049;-70
2022/04/01 10:13:53;;;;;;;7.68;3.10;;;6.00;99.90;;;;;;5014239;28;20049;-68
2022/04/01 10:16:20;;;;;;;6.10;3.10;;;6.10;99.90;;;;;;5017625;28;20050;-70
2022/04/01 10:18:47;;;;;;;7.13;2.58;;;6.10;99.90;;;;;;5017198;28;20057;-69
2022/04/01 10:21:19;;;;;;;7.07;3.10;;;6.10;99.90;;;;;;5017383;28;20046;-69
2022/04/01 10:24:04;;;;;;;7.20;3.22;;;6.20;99.90;;;;;;5017637;28;20046;-69
2022/04/01 10:26:33;;;;;;;6.10;3.45;;;6.20;99.90;;;;;;5003957;28;20060;-68
2022/04/01 10:29:00;;;;;;;6.00;3.47;;;6.20;99.90;;;;;;5037424;28;20068;-69
2022/04/01 10:31:26;;;;;;;6.72;3.15;;;6.20;99.90;;;;;;5003947;28;20145;-70
2022/04/01 10:33:51;;;;;;;8.75;3.20;;;6.20;99.90;;;;;;5020463;28;20175;-69
2022/04/01 10:36:31;;;;;;;5.68;3.05;;;6.30;99.90;;;;;;5037331;28;20041;-70
2022/04/01 10:39:06;;;;;;;6.43;2.78;;;6.20;99.90;;;;;;5036863;28;20187;-71
2022/04/01 10:41:32;;;;;;;6.78;2.53;;;6.20;99.90;;;;;;5037255;28;20336;-71
2022/04/01 10:43:58;;;;;;;6.63;2.60;;;6.10;99.90;;;;;;5036882;28;20049;-69
2022/04/01 10:46:24;;;;;;;6.90;2.85;;;6.00;99.90;;;;;;5037102;28;20041;-69
2022/04/01 10:52:21;;;;;;;8.02;2.47;;;5.90;99.90;;;;;;5037174;28;20122;-71
2022/04/01 10:54:49;;;;;;;7.10;2.28;;;5.70;99.90;;;;;;5037047;28;20116;-69
2022/04/01 10:57:29;;;;;;;6.00;2.50;;;5.70;99.90;;;;;;5036736;28;20033;-69
2022/04/01 11:00:00;;;;;;;8.43;2.67;;;5.70;99.90;;;;;;5036582;28;20052;-69
2022/04/01 11:02:25;;;;;;;6.30;2.60;;;5.60;99.90;;;;;;5036736;28;20053;-70
2022/04/01 11:04:52;;;;;;;6.55;2.50;;;5.60;99.90;;;;;;5036553;28;20037;-69
2022/04/01 11:07:23;;;;;;;4.53;2.30;;;5.60;99.90;;;;;;5036592;28;20056;-70
2022/04/01 11:09:54;;;;;;;4.65;2.22;;;5.60;99.90;;;;;;5035347;28;20037;-70
2022/04/01 11:12:31;;;;;;;4.30;1.95;;;5.70;99.90;;;;;;5036045;28;20056;-69
2022/04/01 11:15:00;;;;;;;7.75;2.75;;;5.80;99.90;;;;;;5036553;28;20037;-69
2022/04/01 11:17:34;;;;;;;5.65;2.22;;;5.80;99.90;;;;;;5036333;28;20041;-69
2022/04/01 11:20:13;;;;;;;;;;;5.80;99.90;;;;;;5036934;28;20120;-69
2022/04/01 11:22:45;;;;;;;9.02;2.30;;;5.60;99.90;;;;;;5036306;28;19917;-69
2022/04/01 11:25:31;;;;;;;6.43;2.78;;;5.60;99.90;;;;;;5002354;28;20068;-70
2022/04/01 11:27:57;;;;;;;7.55;2.53;;;5.70;99.90;;;;;;5035951;28;20459;-69
2022/04/01 11:30:31;;;;;;;8.70;2.53;;;5.70;99.90;;;;;;5036520;28;20052;-67
2022/04/01 11:32:59;;;;;;;5.32;2.40;;;5.90;99.90;;;;;;5035382;28;20041;-68
2022/04/01 11:35:34;;;;;;;7.93;3.03;;;6.00;99.90;;;;;;5034979;28;20506;-70
2022/04/01 11:38:00;;;;;;;5.88;2.83;;;6.00;99.90;;;;;;5035876;28;20076;-70
2022/04/01 11:40:28;;;;;;;6.28;2.78;;;5.90;99.90;;;;;;5018638;28;20083;-69
2022/04/01 11:43:03;;;;;;;5.65;2.45;;;6.00;99.90;;;;;;5036214;28;20056;-70
2022/04/01 11:45:43;;;;;;;11.07;3.45;;;6.10;99.90;;;;;;5035756;28;20045;-68
2022/04/01 11:48:26;;;;;;;6.35;2.70;;;6.10;99.90;;;;;;5036219;28;20045;-69
2022/04/01 11:51:02;;;;;;;7.57;2.88;;;6.30;99.90;;;;;;5018910;28;20546;-69
2022/04/01 11:53:30;;;;;;;6.72;3.00;;;6.40;99.90;;;;;;5035161;28;20474;-69
2022/04/01 11:55:57;;;;;;;6.10;2.63;;;6.60;99.90;;;;;;5035772;28;20394;-68
2022/04/01 11:58:23;;;;;;;10.07;3.45;;;6.70;99.90;;;;;;5017950;28;20091;-70
2022/04/01 12:00:49;;;;;;;4.90;2.25;;;6.50;99.90;;;;;;5036003;28;20045;-68
2022/04/01 12:03:18;;;;;;;6.40;2.65;;;6.60;99.90;;;;;;5018479;28;20444;-68
2022/04/01 12:05:44;;;;;;;7.90;2.13;;;6.40;99.90;;;;;;5018274;28;20081;-69
2022/04/01 12:10:56;;;;;;;3.17;2.15;;;6.50;99.90;;;;;;5035071;28;20069;-68
2022/04/01 12:13:24;;;;;;;8.65;2.83;;;6.50;99.90;;;;;;5035568;28;20099;-69
2022/04/01 12:15:52;;;;;;;6.75;2.30;;;6.60;99.90;;;;;;5018047;28;20072;-69
2022/04/01 12:18:30;;;;;;;5.38;2.75;;;6.60;99.90;;;;;;5035530;28;20029;-69
2022/04/01 12:20:58;;;;;;;5.55;3.00;;;6.60;99.90;;;;;;5035087;28;20340;-69
2022/04/01 12:23:26;;;;;;;9.02;2.17;;;6.70;99.90;;;;;;5035554;28;20128;-68
2022/04/01 12:25:54;;;;;;;4.07;2.00;;;6.80;99.90;;;;;;5017750;28;20351;-68
2022/04/01 12:28:26;;;;;;;5.10;2.28;;;6.90;99.90;;;;;;5035841;28;20049;-69
2022/04/01 12:30:54;;;;;;;7.20;2.70;;;6.90;99.90;;;;;;5035270;28;20041;-68
2022/04/01 12:33:30;;;;;;;6.30;2.03;;;6.90;99.90;;;;;;5017758;28;20095;-67
2022/04/01 12:36:00;;;;;;;6.40;2.13;;;7.10;99.90;;;;;;5017535;28;20045;-67
2022/04/01 12:38:27;;;;;;;4.07;1.85;;;7.10;99.90;;;;;;5035597;28;20411;-68
2022/04/01 12:41:01;;;;;;;5.22;1.90;;;7.10;99.90;;;;;;5035103;28;20042;-68
2022/04/01 12:43:45;;;;;;;5.45;2.38;;;7.20;99.90;;;;;;5035033;28;20444;-70
2022/04/01 12:46:22;;;;;;;6.53;2.40;;;7.20;99.90;;;;;;5034552;28;20044;-68
2022/04/01 12:48:56;;;;;;;4.00;2.40;;;7.30;99.90;;;;;;5017591;28;20040;-67
2022/04/01 12:51:28;;;;;;;;;;;7.40;99.90;;;;;;5035603;28;20045;-68
2022/04/01 12:54:04;;;;;;;3.38;1.65;;;7.40;99.90;;;;;;5035221;28;20011;-68
2022/04/01 12:56:33;;;;;;;5.80;1.55;;;7.40;99.90;;;;;;5001095;28;20099;-69
2022/04/01 12:59:03;;;;;;;3.30;1.80;;;7.50;99.90;;;;;;5165798;22;20134;-69
2022/04/01 13:01:31;;;;;;;7.22;2.40;;;7.60;99.90;;;;;;5023585;28;20046;-70
2022/04/01 13:03:58;;;;;;;3.50;1.95;;;7.70;99.90;;;;;;5015206;28;20045;-68
2022/04/01 13:06:25;;;;;;;3.85;1.83;;;7.50;99.90;;;;;;5015024;28;20045;-69
2022/04/01 13:09:07;;;;;;;6.10;1.85;;;7.60;99.90;;;;;;5014514;28;20046;-69
2022/04/01 13:11:45;;;;;;;4.93;2.00;;;7.60;99.90;;;;;;5014912;28;20038;-67
2022/04/01 13:14:25;;;;;;;7.15;2.05;;;7.50;99.90;;;;;;5015069;28;20052;-68
2022/04/01 13:16:53;;;;;;;3.58;1.70;;;7.80;99.90;;;;;;5014695;28;20050;-69
2022/04/01 13:19:23;;;;;;;6.30;1.55;;;7.80;99.90;;;;;;5014870;28;20046;-68